createdAt,value
2023-01-10T00:01:42.151Z,6.48
2023-01-10T00:04:10.144Z,6.44
2023-01-10T00:06:37.621Z,6.59
2023-01-10T00:09:05.224Z,6.72
2023-01-10T00:11:51.313Z,6.57
2023-01-10T00:14:22.023Z,6.77
2023-01-10T00:16:49.564Z,6.63
2023-01-10T00:19:17.071Z,6.57
2023-01-10T00:21:46.115Z,6.49
2023-01-10T00:24:17.932Z,6.46
2023-01-10T00:26:51.109Z,6.43
2023-01-10T00:29:35.380Z,6.43
2023-01-10T00:32:02.917Z,7.01
2023-01-10T00:34:34.931Z,6.82
2023-01-10T00:37:02.431Z,6.60
2023-01-10T00:39:30.630Z,6.84
2023-01-10T00:42:16.830Z,6.61
2023-01-10T00:44:46.834Z,6.40
2023-01-10T00:47:14.849Z,6.11
2023-01-10T00:49:42.401Z,6.11
2023-01-10T00:52:09.946Z,6.29
2023-01-10T00:54:37.402Z,6.40
2023-01-10T00:57:05.051Z,6.40
2023-01-10T00:59:32.586Z,6.36
2023-01-10T01:02:00.210Z,6.13
2023-01-10T01:04:27.957Z,6.25
2023-01-10T01:06:55.418Z,6.07
2023-01-10T01:09:22.899Z,6.24
2023-01-10T01:11:50.352Z,6.12
2023-01-10T01:14:17.806Z,5.97
2023-01-10T01:16:46.313Z,5.71
2023-01-10T01:19:13.816Z,5.70
2023-01-10T01:21:41.809Z,5.61
2023-01-10T01:24:11.586Z,5.49
2023-01-10T01:26:39.924Z,5.51
2023-01-10T01:29:07.331Z,5.50
2023-01-10T01:31:34.985Z,5.41
2023-01-10T01:34:02.523Z,5.28
2023-01-10T01:36:30.251Z,5.37
2023-01-10T01:38:57.731Z,5.68
2023-01-10T01:41:43.719Z,5.65
2023-01-10T01:44:20.364Z,5.68
2023-01-10T01:47:16.026Z,5.47
2023-01-10T01:49:46.729Z,5.52
2023-01-10T01:52:28.135Z,5.69
2023-01-10T01:55:00.036Z,5.67
2023-01-10T01:57:28.775Z,5.70
2023-01-10T01:59:57.161Z,5.76
2023-01-10T02:02:31.001Z,6.10
2023-01-10T02:05:08.897Z,5.97
2023-01-10T02:07:40.851Z,5.91
2023-01-10T02:10:36.983Z,6.00
2023-01-10T02:13:07.997Z,5.96
2023-01-10T02:15:55.464Z,6.09
2023-01-10T02:18:24.339Z,6.17
2023-01-10T02:21:31.624Z,6.47
2023-01-10T02:25:19.812Z,6.46
2023-01-10T02:28:23.128Z,6.17
2023-01-10T02:31:11.918Z,6.47
2023-01-10T02:33:55.645Z,6.39
2023-01-10T02:36:47.038Z,6.13
2023-01-10T02:39:28.613Z,6.19
2023-01-10T02:42:13.909Z,6.18
2023-01-10T02:44:51.117Z,6.35
2023-01-10T02:47:18.840Z,6.41
2023-01-10T02:49:51.906Z,6.40
2023-01-10T02:52:28.269Z,6.39
2023-01-10T02:55:01.884Z,6.48
2023-01-10T02:57:50.049Z,6.71
2023-01-10T03:00:26.826Z,6.70
2023-01-10T03:03:33.421Z,6.72
2023-01-10T03:06:41.111Z,6.81
2023-01-10T03:09:19.927Z,6.56
2023-01-10T03:11:53.716Z,6.47
2023-01-10T03:14:26.290Z,6.29
2023-01-10T03:17:00.317Z,6.51
2023-01-10T03:19:38.010Z,6.43
2023-01-10T03:22:11.296Z,6.65
2023-01-10T03:24:50.986Z,6.49
2023-01-10T03:27:26.146Z,6.81
2023-01-10T03:30:06.551Z,6.89
2023-01-10T03:32:34.744Z,6.74
2023-01-10T03:35:04.514Z,6.67
2023-01-10T03:37:55.403Z,6.57
2023-01-10T03:41:29.529Z,6.54
2023-01-10T03:44:44.273Z,6.68
2023-01-10T03:47:32.607Z,6.45
2023-01-10T03:50:12.966Z,6.26
2023-01-10T03:52:42.845Z,6.35
2023-01-10T03:55:18.543Z,6.53
2023-01-10T03:57:46.350Z,7.11
2023-01-10T04:00:16.545Z,6.76
2023-01-10T04:02:44.540Z,6.56
2023-01-10T04:05:13.152Z,6.36
2023-01-10T04:07:40.964Z,6.29
2023-01-10T04:10:09.602Z,6.12
2023-01-10T04:12:37.309Z,6.06
2023-01-10T04:15:07.780Z,6.09
2023-01-10T04:17:35.219Z,6.16
2023-01-10T04:20:02.789Z,6.19
2023-01-10T04:22:30.273Z,6.26
2023-01-10T04:24:57.697Z,6.32
2023-01-10T04:27:25.232Z,6.31
2023-01-10T04:29:53.219Z,6.65
2023-01-10T04:32:21.745Z,6.84
2023-01-10T04:34:49.194Z,6.68
2023-01-10T04:37:16.734Z,6.86
2023-01-10T04:39:44.299Z,6.94
2023-01-10T04:42:11.815Z,6.79
2023-01-10T04:44:39.442Z,6.77
2023-01-10T04:47:07.182Z,6.83
2023-01-10T04:49:34.669Z,6.59
2023-01-10T04:52:02.486Z,6.63
2023-01-10T04:54:29.988Z,6.62
2023-01-10T04:56:57.602Z,6.67
2023-01-10T04:59:25.195Z,6.64
2023-01-10T05:01:52.682Z,6.52
2023-01-10T05:04:20.976Z,6.29
2023-01-10T05:06:49.496Z,6.42
2023-01-10T05:09:17.047Z,6.33
2023-01-10T05:11:44.484Z,6.99
2023-01-10T05:14:11.919Z,6.68
2023-01-10T05:16:39.412Z,6.49
2023-01-10T05:19:07.003Z,6.30
2023-01-10T05:21:34.476Z,6.42
2023-01-10T05:24:01.977Z,6.42
2023-01-10T05:26:29.367Z,6.28
2023-01-10T05:28:56.948Z,6.29
2023-01-10T05:31:24.496Z,6.14
2023-01-10T05:33:52.756Z,6.07
2023-01-10T05:36:20.545Z,6.07
2023-01-10T05:38:48.354Z,6.20
2023-01-10T05:41:15.824Z,6.20
2023-01-10T05:43:43.266Z,6.11
2023-01-10T05:46:11.480Z,6.21
2023-01-10T05:48:39.125Z,6.16
2023-01-10T05:51:06.926Z,6.24
2023-01-10T05:53:34.417Z,6.35
2023-01-10T05:56:03.615Z,6.37
2023-01-10T05:58:31.616Z,6.45
2023-01-10T06:00:59.633Z,6.26
2023-01-10T06:03:27.447Z,6.26
2023-01-10T06:05:58.406Z,6.35
2023-01-10T06:08:26.438Z,6.56
2023-01-10T06:10:53.996Z,6.70
2023-01-10T06:13:21.784Z,6.65
2023-01-10T06:15:50.018Z,6.67
2023-01-10T06:18:17.547Z,6.62
2023-01-10T06:20:45.324Z,6.55
2023-01-10T06:23:12.947Z,6.42
2023-01-10T06:25:41.783Z,6.49
2023-01-10T06:28:11.585Z,6.66
2023-01-10T06:30:42.124Z,6.81
2023-01-10T06:33:11.444Z,7.18
2023-01-10T06:35:39.855Z,6.94
2023-01-10T06:38:07.586Z,7.48
2023-01-10T06:40:35.102Z,6.92
2023-01-10T06:43:02.579Z,6.77
2023-01-10T06:45:30.455Z,6.54
2023-01-10T06:47:57.995Z,6.58
2023-01-10T06:50:26.110Z,6.37
2023-01-10T06:53:02.942Z,6.42
2023-01-10T06:55:31.052Z,6.24
2023-01-10T06:58:01.199Z,6.45
2023-01-10T07:00:30.221Z,6.31
2023-01-10T07:03:02.818Z,6.29
2023-01-10T07:05:30.769Z,6.42
2023-01-10T07:08:01.211Z,6.49
2023-01-10T07:10:29.117Z,6.26
2023-01-10T07:12:56.939Z,6.36
2023-01-10T07:15:24.551Z,6.67
2023-01-10T07:17:52.096Z,6.41
2023-01-10T07:20:20.950Z,6.77
2023-01-10T07:23:00.413Z,6.65
2023-01-10T07:25:30.628Z,6.66
2023-01-10T07:27:58.360Z,6.54
2023-01-10T07:30:26.171Z,6.37
2023-01-10T07:32:58.690Z,6.35
2023-01-10T07:35:26.829Z,6.48
2023-01-10T07:37:54.395Z,6.52
2023-01-10T07:40:21.884Z,6.36
2023-01-10T07:42:50.080Z,6.37
2023-01-10T07:45:17.635Z,6.43
2023-01-10T07:47:45.076Z,6.49
2023-01-10T07:50:12.555Z,6.64
2023-01-10T07:52:40.050Z,6.54
2023-01-10T07:55:08.022Z,6.50
2023-01-10T07:57:35.497Z,6.40
2023-01-10T08:00:03.708Z,6.19
2023-01-10T08:02:32.610Z,6.03
2023-01-10T08:05:01.534Z,6.21
2023-01-10T08:07:35.143Z,6.09
2023-01-10T08:10:03.251Z,6.22
2023-01-10T08:12:30.761Z,6.39
2023-01-10T08:14:58.287Z,6.44
2023-01-10T08:17:26.210Z,6.23
2023-01-10T08:19:53.681Z,6.18
2023-01-10T08:22:21.266Z,6.33
2023-01-10T08:24:48.812Z,6.47
2023-01-10T08:27:16.424Z,6.42
2023-01-10T08:29:43.865Z,6.30
2023-01-10T08:32:12.045Z,6.63
2023-01-10T08:34:39.656Z,6.76
2023-01-10T08:37:07.198Z,6.71
2023-01-10T08:39:35.415Z,6.66
2023-01-10T08:42:03.246Z,6.85
2023-01-10T08:44:30.795Z,6.89
2023-01-10T08:46:58.422Z,7.07
2023-01-10T08:49:25.860Z,7.33
2023-01-10T08:51:53.326Z,6.88
2023-01-10T08:54:20.812Z,6.96
2023-01-10T08:56:49.532Z,7.49
2023-01-10T08:59:17.345Z,6.90
2023-01-10T09:01:45.029Z,6.90
2023-01-10T09:04:12.815Z,6.86
2023-01-10T09:06:40.263Z,6.72
2023-01-10T09:09:08.084Z,6.80
2023-01-10T09:11:35.626Z,6.66
2023-01-10T09:14:03.105Z,6.84
2023-01-10T09:16:30.697Z,7.02
2023-01-10T09:18:58.342Z,7.21
2023-01-10T09:21:27.192Z,6.87
2023-01-10T09:23:54.920Z,7.10
2023-01-10T09:26:22.482Z,7.00
2023-01-10T09:28:50.038Z,6.63
2023-01-10T09:31:17.585Z,6.69
2023-01-10T09:33:47.756Z,6.67
2023-01-10T09:36:15.840Z,6.41
2023-01-10T09:38:44.319Z,6.94
2023-01-10T09:41:54.779Z,7.03
2023-01-10T09:44:44.189Z,6.97
2023-01-10T09:47:45.623Z,6.77
2023-01-10T09:50:41.575Z,6.68
2023-01-10T09:53:21.699Z,6.69
2023-01-10T09:55:59.924Z,6.54
2023-01-10T09:58:32.078Z,6.67
2023-01-10T10:01:10.972Z,6.43
2023-01-10T10:04:11.771Z,6.63
2023-01-10T10:06:39.746Z,6.75
2023-01-10T10:09:11.509Z,7.02
2023-01-10T10:12:16.568Z,6.98
2023-01-10T10:15:33.971Z,6.99
2023-01-10T10:18:07.201Z,6.81
2023-01-10T10:20:53.783Z,7.08
2023-01-10T10:24:26.853Z,7.17
2023-01-10T10:27:41.160Z,7.17
2023-01-10T10:30:36.057Z,6.99
2023-01-10T10:33:30.709Z,6.76
2023-01-10T10:36:05.331Z,6.87
2023-01-10T10:38:39.584Z,6.82
2023-01-10T10:41:29.033Z,6.48
2023-01-10T10:44:04.299Z,6.53
2023-01-10T10:46:33.127Z,6.41
2023-01-10T10:49:49.609Z,6.32
2023-01-10T10:52:27.883Z,6.23
2023-01-10T10:54:57.051Z,6.33
2023-01-10T10:57:59.827Z,6.41
2023-01-10T11:00:30.810Z,6.75
2023-01-10T11:03:13.242Z,6.70
2023-01-10T11:05:47.916Z,6.35
2023-01-10T11:08:20.733Z,6.64
2023-01-10T11:10:54.303Z,6.31
2023-01-10T11:13:49.369Z,6.40
2023-01-10T11:16:33.200Z,6.63
2023-01-10T11:19:20.639Z,6.52
2023-01-10T11:22:04.868Z,6.85
2023-01-10T11:25:03.589Z,6.44
2023-01-10T11:27:52.527Z,6.40
2023-01-10T11:30:34.531Z,6.38
2023-01-10T11:33:06.311Z,6.36
2023-01-10T11:35:37.810Z,6.46
2023-01-10T11:38:16.959Z,6.63
2023-01-10T11:41:13.741Z,6.69
2023-01-10T11:43:42.185Z,6.76
2023-01-10T11:46:21.588Z,6.81
2023-01-10T11:49:09.699Z,6.80
2023-01-10T11:51:47.656Z,6.66
2023-01-10T11:54:25.660Z,6.60
2023-01-10T11:57:06.880Z,6.78
2023-01-10T11:59:34.752Z,6.92
2023-01-10T12:02:24.987Z,7.18
2023-01-10T12:04:54.840Z,7.27
2023-01-10T12:07:22.625Z,7.26
2023-01-10T12:10:04.014Z,7.12
2023-01-10T12:12:35.085Z,6.96
2023-01-10T12:15:33.571Z,6.96
2023-01-10T12:18:04.273Z,7.47
2023-01-10T12:20:46.932Z,7.33
2023-01-10T12:23:22.402Z,7.46
2023-01-10T12:25:53.242Z,7.33
2023-01-10T12:28:30.073Z,7.25
2023-01-10T12:31:02.331Z,6.91
2023-01-10T12:33:37.190Z,7.05
2023-01-10T12:36:25.757Z,7.19
2023-01-10T12:39:10.594Z,7.03
2023-01-10T12:42:35.204Z,7.03
2023-01-10T12:45:23.964Z,6.81
2023-01-10T12:48:06.846Z,7.10
2023-01-10T12:50:45.491Z,6.70
2023-01-10T12:53:24.027Z,6.70
2023-01-10T12:55:56.893Z,6.76
2023-01-10T12:59:11.393Z,6.96
2023-01-10T13:01:45.278Z,6.97
2023-01-10T13:04:22.374Z,7.23
2023-01-10T13:07:12.762Z,7.04
2023-01-10T13:09:43.862Z,6.78
2023-01-10T13:12:41.088Z,6.60
2023-01-10T13:15:27.937Z,6.67
2023-01-10T13:18:17.333Z,6.83
2023-01-10T13:20:45.944Z,6.96
2023-01-10T13:23:23.285Z,6.95
2023-01-10T13:26:10.481Z,7.13
2023-01-10T13:28:54.610Z,7.39
2023-01-10T13:31:31.685Z,7.58
2023-01-10T13:34:14.385Z,7.58
2023-01-10T13:36:56.937Z,7.55
2023-01-10T13:39:34.869Z,7.58
2023-01-10T13:42:20.765Z,7.61
2023-01-10T13:45:03.506Z,8.14
2023-01-10T13:47:40.120Z,8.65
2023-01-10T13:50:25.685Z,8.24
2023-01-10T13:53:15.659Z,8.42
2023-01-10T13:55:53.792Z,8.28
2023-01-10T13:58:42.727Z,8.09
2023-01-10T14:01:46.662Z,7.86
2023-01-10T14:04:47.560Z,7.72
2023-01-10T14:07:32.133Z,7.37
2023-01-10T14:10:21.675Z,7.25
2023-01-10T14:12:56.611Z,7.17
2023-01-10T14:15:32.292Z,7.21
2023-01-10T14:18:39.280Z,7.13
2023-01-10T14:21:09.756Z,7.24
2023-01-10T14:23:43.662Z,7.26
2023-01-10T14:26:30.075Z,7.43
2023-01-10T14:28:59.670Z,7.52
2023-01-10T14:31:28.991Z,7.54
2023-01-10T14:34:00.597Z,7.49
2023-01-10T14:36:48.374Z,7.50
2023-01-10T14:39:36.302Z,7.73
2023-01-10T14:42:08.213Z,7.96
2023-01-10T14:44:51.299Z,7.95
2023-01-10T14:47:34.433Z,8.25
2023-01-10T14:50:22.901Z,8.49
2023-01-10T14:52:50.408Z,8.27
2023-01-10T14:55:22.647Z,8.32
2023-01-10T14:58:02.842Z,8.15
2023-01-10T15:00:34.530Z,7.96
2023-01-10T15:03:04.251Z,8.15
2023-01-10T15:05:38.456Z,7.96
2023-01-10T15:08:35.924Z,7.75
2023-01-10T15:11:08.158Z,7.68
2023-01-10T15:13:50.713Z,7.73
2023-01-10T15:16:23.114Z,8.06
2023-01-10T15:18:51.555Z,8.11
2023-01-10T15:21:24.263Z,7.86
2023-01-10T15:23:52.067Z,8.06
2023-01-10T15:26:40.661Z,8.34
2023-01-10T15:29:19.472Z,7.96
2023-01-10T15:31:47.577Z,7.93
2023-01-10T15:34:21.668Z,7.92
2023-01-10T15:36:55.994Z,7.77
2023-01-10T15:39:29.790Z,7.63
2023-01-10T15:42:03.720Z,7.50
2023-01-10T15:44:37.056Z,7.45
2023-01-10T15:47:05.883Z,7.47
2023-01-10T15:49:33.786Z,7.59
2023-01-10T15:52:03.981Z,7.70
2023-01-10T15:54:32.872Z,7.83
2023-01-10T15:57:14.978Z,7.75
2023-01-10T15:59:48.126Z,7.75
2023-01-10T16:02:34.287Z,7.90
2023-01-10T16:05:22.108Z,7.95
2023-01-10T16:07:49.951Z,7.99
2023-01-10T16:10:45.415Z,7.99
2023-01-10T16:13:31.612Z,8.05
2023-01-10T16:16:04.930Z,7.88
2023-01-10T16:18:32.500Z,7.95
2023-01-10T16:21:03.758Z,7.76
2023-01-10T16:23:36.456Z,7.74
2023-01-10T16:26:24.832Z,7.72
2023-01-10T16:28:52.275Z,7.76
2023-01-10T16:31:20.851Z,7.90
2023-01-10T16:33:53.299Z,8.04
2023-01-10T16:36:21.487Z,8.05
2023-01-10T16:38:50.203Z,8.05
2023-01-10T16:41:38.214Z,7.98
2023-01-10T16:44:05.751Z,7.98
2023-01-10T16:46:36.881Z,7.88
2023-01-10T16:49:08.011Z,7.91
2023-01-10T16:51:41.129Z,7.78
2023-01-10T16:54:26.567Z,7.91
2023-01-10T16:56:54.180Z,8.05
2023-01-10T16:59:23.894Z,8.27
2023-01-10T17:01:58.567Z,8.15
2023-01-10T17:04:35.949Z,8.02
2023-01-10T17:07:03.629Z,7.95
2023-01-10T17:09:31.951Z,7.82
2023-01-10T17:12:11.235Z,8.04
2023-01-10T17:14:39.965Z,7.87
2023-01-10T17:17:07.503Z,7.97
2023-01-10T17:19:37.251Z,7.87
2023-01-10T17:22:05.642Z,7.94
2023-01-10T17:24:33.214Z,8.16
2023-01-10T17:27:02.769Z,8.03
2023-01-10T17:29:34.064Z,7.91
2023-01-10T17:32:02.004Z,7.86
2023-01-10T17:34:37.192Z,7.85
2023-01-10T17:37:08.398Z,7.89
2023-01-10T17:39:37.928Z,7.83
2023-01-10T17:42:08.302Z,7.90
2023-01-10T17:44:37.031Z,8.15
2023-01-10T17:47:10.898Z,8.18
2023-01-10T17:49:38.559Z,8.07
2023-01-10T17:52:09.021Z,7.97
2023-01-10T17:54:36.684Z,7.92
2023-01-10T17:57:06.511Z,7.90
2023-01-10T17:59:36.890Z,7.86
2023-01-10T18:02:11.208Z,7.86
2023-01-10T18:04:40.391Z,7.90
2023-01-10T18:07:09.466Z,7.97
2023-01-10T18:09:40.632Z,7.91
2023-01-10T18:12:14.313Z,7.92
2023-01-10T18:14:43.452Z,7.96
2023-01-10T18:17:16.626Z,7.93
2023-01-10T18:19:53.211Z,7.88
2023-01-10T18:22:40.939Z,7.87
2023-01-10T18:25:09.830Z,8.77
2023-01-10T18:27:42.934Z,9.15
2023-01-10T18:30:16.186Z,8.75
2023-01-10T18:32:46.081Z,8.47
2023-01-10T18:35:14.321Z,8.31
2023-01-10T18:37:45.830Z,8.36
2023-01-10T18:40:14.847Z,8.01
2023-01-10T18:42:44.750Z,8.27
2023-01-10T18:45:12.668Z,8.31
2023-01-10T18:47:40.583Z,8.25
2023-01-10T18:50:14.310Z,8.14
2023-01-10T18:52:43.525Z,8.34
2023-01-10T18:55:12.629Z,7.95
2023-01-10T18:57:55.895Z,7.70
2023-01-10T19:00:26.267Z,7.52
2023-01-10T19:02:56.350Z,7.43
2023-01-10T19:05:30.890Z,7.42
2023-01-10T19:08:00.247Z,7.45
2023-01-10T19:10:32.638Z,7.46
2023-01-10T19:13:12.867Z,7.50
2023-01-10T19:15:42.833Z,7.49
2023-01-10T19:18:15.493Z,7.49
2023-01-10T19:20:45.647Z,7.56
2023-01-10T19:23:13.691Z,7.42
2023-01-10T19:25:46.723Z,7.34
2023-01-10T19:28:18.446Z,7.37
2023-01-10T19:31:03.475Z,7.37
2023-01-10T19:33:40.410Z,7.43
2023-01-10T19:36:12.496Z,7.46
2023-01-10T19:38:41.072Z,7.52
2023-01-10T19:41:11.533Z,7.54
2023-01-10T19:43:43.658Z,7.56
2023-01-10T19:46:18.721Z,7.58
2023-01-10T19:48:48.243Z,7.61
2023-01-10T19:51:22.860Z,7.62
2023-01-10T19:53:52.182Z,7.64
2023-01-10T19:56:25.567Z,7.69
2023-01-10T19:59:01.712Z,7.75
2023-01-10T20:01:32.911Z,7.63
2023-01-10T20:04:07.393Z,7.82
2023-01-10T20:06:39.873Z,7.85
2023-01-10T20:09:09.409Z,8.11
2023-01-10T20:11:43.769Z,8.20
2023-01-10T20:14:26.092Z,8.22
2023-01-10T20:16:54.364Z,8.22
2023-01-10T20:19:23.175Z,8.05
2023-01-10T20:21:51.112Z,8.09
2023-01-10T20:24:21.225Z,7.91
2023-01-10T20:26:50.950Z,7.90
2023-01-10T20:29:20.328Z,7.98
2023-01-10T20:31:53.823Z,7.92
2023-01-10T20:34:23.394Z,7.77
2023-01-10T20:36:53.125Z,7.82
2023-01-10T20:39:27.911Z,8.05
2023-01-10T20:41:56.160Z,8.10
2023-01-10T20:44:30.841Z,8.22
2023-01-10T20:47:00.595Z,7.85
2023-01-10T20:49:28.695Z,7.89
2023-01-10T20:51:56.828Z,8.20
2023-01-10T20:54:25.677Z,8.22
2023-01-10T20:56:53.250Z,8.23
2023-01-10T20:59:25.944Z,7.99
2023-01-10T21:01:55.048Z,8.03
2023-01-10T21:04:22.591Z,7.93
2023-01-10T21:06:50.471Z,7.78
2023-01-10T21:09:20.543Z,7.66
2023-01-10T21:12:04.137Z,7.79
2023-01-10T21:14:35.623Z,7.97
2023-01-10T21:17:03.079Z,7.65
2023-01-10T21:19:30.671Z,7.63
2023-01-10T21:21:58.668Z,7.25
2023-01-10T21:24:26.309Z,7.30
2023-01-10T21:26:54.855Z,7.44
2023-01-10T21:29:22.713Z,7.42
2023-01-10T21:31:54.928Z,7.52
2023-01-10T21:34:22.486Z,7.38
2023-01-10T21:36:50.504Z,7.30
2023-01-10T21:39:18.373Z,7.24
2023-01-10T21:42:04.703Z,7.26
2023-01-10T21:44:32.192Z,7.34
2023-01-10T21:46:59.676Z,7.40
2023-01-10T21:49:27.288Z,7.53
2023-01-10T21:51:54.907Z,7.60
2023-01-10T21:54:22.555Z,7.65
2023-01-10T21:56:50.218Z,7.82
2023-01-10T21:59:17.955Z,7.87
2023-01-10T22:01:46.344Z,7.70
2023-01-10T22:04:16.353Z,7.56
2023-01-10T22:06:44.820Z,7.43
2023-01-10T22:09:12.324Z,7.34
2023-01-10T22:11:40.266Z,7.38
2023-01-10T22:14:07.806Z,7.35
2023-01-10T22:16:35.400Z,7.31
2023-01-10T22:19:02.886Z,7.37
2023-01-10T22:21:30.411Z,7.69
2023-01-10T22:23:57.877Z,7.86
2023-01-10T22:26:27.490Z,7.63
2023-01-10T22:28:55.439Z,7.90
2023-01-10T22:31:23.048Z,7.85
2023-01-10T22:33:50.609Z,7.95
2023-01-10T22:36:19.699Z,8.11
2023-01-10T22:38:50.008Z,7.70
2023-01-10T22:41:26.988Z,7.79
2023-01-10T22:43:55.837Z,8.09
2023-01-10T22:46:24.889Z,7.84
2023-01-10T22:48:53.028Z,7.74
2023-01-10T22:51:22.699Z,7.49
2023-01-10T22:53:55.997Z,7.50
2023-01-10T22:56:26.712Z,7.30
2023-01-10T22:58:54.291Z,7.18
2023-01-10T23:01:24.588Z,7.23
2023-01-10T23:03:52.228Z,7.56
2023-01-10T23:06:20.444Z,7.21
2023-01-10T23:08:48.700Z,7.27
2023-01-10T23:11:19.638Z,7.46
2023-01-10T23:13:48.107Z,7.20
2023-01-10T23:16:29.745Z,7.49
2023-01-10T23:18:58.821Z,7.07
2023-01-10T23:21:29.278Z,7.18
2023-01-10T23:23:57.231Z,7.01
2023-01-10T23:26:25.328Z,7.04
2023-01-10T23:28:52.897Z,6.86
2023-01-10T23:31:29.316Z,6.82
2023-01-10T23:33:57.407Z,6.65
2023-01-10T23:36:25.440Z,6.49
2023-01-10T23:38:53.106Z,6.53
2023-01-10T23:41:21.281Z,6.57
2023-01-10T23:43:50.489Z,6.65
2023-01-10T23:46:18.951Z,7.03
2023-01-10T23:48:48.345Z,7.01
2023-01-10T23:51:16.001Z,6.84
2023-01-10T23:53:43.671Z,6.96
2023-01-10T23:56:14.574Z,7.31
2023-01-10T23:58:42.276Z,7.16
